Terminal Aerodrome Forecast
Issued by NWS

Home | Current Version | Previous Version | Text Only | Print | Product List | Glossary On
Versions: 1 2 3 4 5 6 7 8 9 10 11 12 13 14 15 16 17 18 19
000
FTUS43 KICT 270623 AAA
TAFRSL
TAF AMD
KRSL 270623Z 2706/2806 03017G25KT P6SM OVC007
     FM270800 03013KT P6SM OVC008
     FM271400 02007KT P6SM OVC015
     FM271600 03005KT P6SM SCT020 BKN040
     FM272000 20009KT P6SM BKN060=

USA.gov is the U.S. government's official web portal to all federal, state and local government web resources and services.